This is the latest recevied weather packets stored in our database for station/object K7DC. If no packets are shown the sender has not sent any weather packets the latest 1 day(s).
| Time | Temp. | Humidity | Pressure | Rain* | Wind** | Luminosity | Snow |
|---|---|---|---|---|---|---|---|
| 1778012191 | 24.44° C | 35% | 1011.7 hPa | 0 mm | 1.79 m/s, 259° | 245 W/m² | - |
| 1778011889 | 25° C | 33% | 1011.6 hPa | 0 mm | 4.92 m/s, 198° | 1144 W/m² | - |
| 1778011587 | 24.44° C | 37% | 1011.7 hPa | 0 mm | 1.34 m/s, 255° | 398 W/m² | - |
| 1778011284 | 25° C | 36% | 1011.9 hPa | 0 mm | 2.68 m/s, 218° | 863 W/m² | - |
| 1778010980 | 25.56° C | 34% | 1011.8 hPa | 0 mm | 1.79 m/s, 242° | 1043 W/m² | - |
| 1778010677 | 24.44° C | 36% | 1011.8 hPa | 0 mm | 2.68 m/s, 211° | 583 W/m² | - |
| 1778010374 | 25° C | 36% | 1011.8 hPa | 0 mm | 2.24 m/s, 41° | 516 W/m² | - |
| 1778010069 | 26.11° C | 34% | 1011.6 hPa | 0 mm | 2.68 m/s, 246° | 306 W/m² | - |
| 1778009767 | 25° C | 34% | 1011.8 hPa | 0 mm | 2.24 m/s, 224° | 1138 W/m² | - |
| 1778009464 | 24.44° C | 35% | 1011.9 hPa | 0 mm | 2.24 m/s, 258° | 947 W/m² | - |
| 1778009163 | 24.44° C | 36% | 1011.8 hPa | 0 mm | 1.34 m/s, 242° | 1140 W/m² | - |
| 1778008860 | 25° C | 35% | 1011.9 hPa | 0 mm | 3.13 m/s, 174° | 1035 W/m² | - |
| 1778008558 | 24.44° C | 37% | 1012.1 hPa | 0 mm | 3.13 m/s, 205° | 1080 W/m² | - |
| 1778008255 | 24.44° C | 39% | 1011.9 hPa | 0 mm | 0.89 m/s, 169° | 776 W/m² | - |
| 1778007950 | 25° C | 38% | 1012.1 hPa | 0 mm | 0.45 m/s, 155° | 1190 W/m² | - |
| 1778007646 | 25° C | 37% | 1012.4 hPa | 0 mm | 1.79 m/s, 276° | 962 W/m² | - |
| 1778007343 | 25° C | 40% | 1012.4 hPa | 0 mm | 1.79 m/s, 233° | 1079 W/m² | - |
| 1778007039 | 24.44° C | 37% | 1012.4 hPa | 0 mm | 0.89 m/s, 292° | 1030 W/m² | - |
| 1778006736 | 24.44° C | 39% | 1012.4 hPa | 0 mm | 1.79 m/s, 220° | 649 W/m² | - |
| 1778006433 | 25° C | 39% | 1012.4 hPa | 0 mm | 2.24 m/s, 282° | 1128 W/m² | - |
| 1778006130 | 24.44° C | 39% | 1012.5 hPa | 0 mm | 0.89 m/s, 211° | 269 W/m² | - |
| 1778005827 | 24.44° C | 40% | 1012.4 hPa | 0 mm | 1.79 m/s, 191° | 1067 W/m² | - |
| 1778005523 | 23.89° C | 43% | 1012.4 hPa | 0 mm | 1.79 m/s, 135° | 1012 W/m² | - |
| 1778005220 | 24.44° C | 39% | 1012.6 hPa | 0 mm | 2.68 m/s, 244° | 283 W/m² | - |
| 1778004917 | 23.89° C | 41% | 1012.6 hPa | 0 mm | 1.79 m/s, 108° | 1039 W/m² | - |
* Rain latest hour (hover to see other rain measurements)
** Current wind speed in m/s (hover to see current wind gust speed)